CheckWX is a tool to help pilots better visualize weather data.  It is not intended as a substitute for an official pre-flight weather briefing.

17:30:54 UTC

KGBD TAF
Great Bend Municipal Airport
Great Bend, Kansas, USA
KGBD 241725Z 2417/2518 33012KT P6SM BKN018 FM250200 02008KT P6SM BKN150 FM251200 36007KT P6SM BKN010 FM251500 02007KT P6SM OVC023

Mar-24@
17:00 UTC

Mar-24 @ 17:00 UTC

Mar-25@
02:00 UTC

Mar-25 @ 02:00 UTC

KGBD 241725Z 2417/2518 33012KT P6SM BKN018
Wind
  • 330° at 12 KTS
Cloud Levels
  • Broken at 1,800' AGL

Mar-25@
02:00 UTC

Mar-25 @ 02:00 UTC

Mar-25@
12:00 UTC

Mar-25 @ 12:00 UTC

FM250200 02008KT P6SM BKN150

From

From Standard forecast or significant change

Wind
  • 020° at 8 KTS
Cloud Levels
  • Broken at 15,000' AGL

Mar-25@
12:00 UTC

Mar-25 @ 12:00 UTC

Mar-25@
15:00 UTC

Mar-25 @ 15:00 UTC

FM251200 36007KT P6SM BKN010

From

From Standard forecast or significant change

Wind
  • 360° at 7 KTS
Cloud Levels
  • Broken at 1,000' AGL

Mar-25@
15:00 UTC

Mar-25 @ 15:00 UTC

Mar-25@
18:00 UTC

Mar-25 @ 18:00 UTC

FM251500 02007KT P6SM OVC023

From

From Standard forecast or significant change

Wind
  • 020° at 7 KTS
Cloud Levels
  • Overcast at 2,300' AGL